Time;durP1;ratioP1;P1;durP2;ratioP2;P2;SDS_P1;SDS_P2;PMS_P1;PMS_P2;Temp;Humidity;BMP_temperature;BMP_pressure;BME280_temperature;BME280_humidity;BME280_pressure;Samples;Min_cycle;Max_cycle;Signal;HPM_P1;HPM_P2
2021/09/20 00:01:35;;;;;;;0.50;0.40;;;10.20;99.90;;;;;;5061939;28;20215;-81
2021/09/20 00:04:03;;;;;;;0.50;0.40;;;10.10;99.90;;;;;;5061929;28;20192;-81
2021/09/20 00:06:30;;;;;;;0.50;0.40;;;10.20;99.90;;;;;;5061440;28;20203;-81
2021/09/20 00:08:57;;;;;;;0.50;0.40;;;10.10;99.90;;;;;;5061626;28;20681;-80
2021/09/20 00:11:23;;;;;;;0.50;0.40;;;10.10;99.90;;;;;;5060523;28;20243;-81
2021/09/20 00:13:50;;;;;;;0.50;0.40;;;10.00;99.90;;;;;;5061136;28;20273;-81
2021/09/20 00:16:17;;;;;;;0.50;0.50;;;10.00;99.90;;;;;;5062592;28;20197;-79
2021/09/20 00:18:44;;;;;;;0.50;0.40;;;10.00;99.90;;;;;;5060744;28;20198;-80
2021/09/20 00:21:12;;;;;;;0.50;0.40;;;10.00;99.90;;;;;;5060450;28;20215;-81
2021/09/20 00:23:39;;;;;;;0.50;0.40;;;9.90;99.90;;;;;;5060378;28;20673;-80
2021/09/20 00:26:06;;;;;;;0.50;0.40;;;9.90;99.90;;;;;;5056779;28;20199;-80
2021/09/20 00:28:32;;;;;;;0.50;0.40;;;9.90;99.90;;;;;;5048557;28;20188;-81
2021/09/20 00:30:59;;;;;;;0.50;0.40;;;9.90;99.90;;;;;;5060745;28;20219;-80
2021/09/20 00:33:25;;;;;;;0.50;0.40;;;9.90;99.90;;;;;;5059763;28;20198;-80
2021/09/20 00:35:52;;;;;;;0.50;0.40;;;9.80;99.90;;;;;;5062090;28;20596;-81
2021/09/20 00:38:20;;;;;;;0.50;0.40;;;9.80;99.90;;;;;;5060489;28;20198;-78
2021/09/20 00:40:47;;;;;;;0.50;0.40;;;9.80;99.90;;;;;;5059661;28;20211;-80
2021/09/20 00:43:14;;;;;;;0.50;0.40;;;9.70;99.90;;;;;;5060488;28;20226;-81
2021/09/20 00:45:40;;;;;;;0.50;0.40;;;9.70;99.90;;;;;;5061746;28;20188;-81
2021/09/20 00:48:07;;;;;;;0.50;0.40;;;9.70;99.90;;;;;;5060308;28;20207;-81
2021/09/20 00:50:34;;;;;;;0.50;0.40;;;9.60;99.90;;;;;;5060150;28;20269;-82
2021/09/20 00:53:01;;;;;;;0.50;0.40;;;9.70;99.90;;;;;;5060422;28;20687;-79
2021/09/20 00:55:29;;;;;;;0.50;0.40;;;9.60;99.90;;;;;;5059984;28;20211;-80
2021/09/20 00:57:56;;;;;;;0.50;0.40;;;9.60;99.90;;;;;;5058853;28;20205;-81
2021/09/20 01:00:23;;;;;;;0.50;0.40;;;9.50;99.90;;;;;;5039817;28;20223;-80
2021/09/20 01:02:49;;;;;;;0.50;0.40;;;9.50;99.90;;;;;;5040568;28;20223;-81
2021/09/20 01:05:16;;;;;;;0.50;0.40;;;9.50;99.90;;;;;;5040229;28;20193;-79
2021/09/20 01:07:43;;;;;;;0.50;0.40;;;9.60;99.90;;;;;;5040736;28;20205;-80
2021/09/20 01:10:12;;;;;;;0.50;0.40;;;9.60;99.90;;;;;;5040479;28;20254;-80
2021/09/20 01:12:40;;;;;;;0.50;0.40;;;9.60;99.90;;;;;;5041777;28;20680;-81
2021/09/20 01:15:08;;;;;;;0.57;0.57;;;9.60;99.90;;;;;;5041821;28;20219;-81
2021/09/20 01:17:34;;;;;;;0.50;0.40;;;9.60;99.90;;;;;;5039732;28;20406;-80
2021/09/20 01:20:02;;;;;;;0.50;0.40;;;9.60;99.90;;;;;;5038657;28;20220;-80
2021/09/20 01:22:30;;;;;;;0.50;0.40;;;9.60;99.90;;;;;;5040331;28;20553;-80
2021/09/20 01:24:58;;;;;;;0.50;0.40;;;9.50;99.90;;;;;;5039487;28;20260;-80
2021/09/20 01:27:25;;;;;;;0.50;0.40;;;9.50;99.90;;;;;;5042829;28;20187;-80
2021/09/20 01:29:52;;;;;;;0.50;0.40;;;9.50;99.90;;;;;;5057531;28;20722;-80
2021/09/20 01:32:19;;;;;;;0.50;0.40;;;9.50;99.90;;;;;;5061116;28;20191;-81
2021/09/20 01:34:46;;;;;;;0.50;0.40;;;9.50;99.90;;;;;;5060062;28;20212;-80
2021/09/20 01:37:13;;;;;;;0.50;0.40;;;9.50;99.90;;;;;;5062107;28;20226;-80
2021/09/20 01:39:39;;;;;;;0.50;0.40;;;9.50;99.90;;;;;;5062275;28;20582;-80
2021/09/20 01:42:08;;;;;;;2.15;1.50;;;9.50;99.90;;;;;;5061336;28;20196;-81
2021/09/20 01:44:35;;;;;;;0.50;0.40;;;9.60;99.90;;;;;;5061843;28;20195;-80
2021/09/20 01:47:03;;;;;;;0.50;0.40;;;9.60;99.90;;;;;;5050471;28;20221;-80
2021/09/20 01:49:30;;;;;;;0.50;0.40;;;9.70;99.90;;;;;;5041594;28;20215;-80
2021/09/20 01:51:57;;;;;;;0.50;0.40;;;9.70;99.90;;;;;;5041619;28;20193;-82
2021/09/20 01:54:24;;;;;;;0.80;0.80;;;9.70;99.90;;;;;;5049240;28;20197;-80
2021/09/20 01:56:52;;;;;;;0.50;0.40;;;9.80;99.90;;;;;;5053260;28;20196;-80
2021/09/20 01:59:20;;;;;;;0.50;0.40;;;9.90;99.90;;;;;;5053886;28;20201;-81
2021/09/20 02:01:47;;;;;;;0.50;0.40;;;10.00;99.90;;;;;;5060223;28;20200;-79
2021/09/20 02:04:13;;;;;;;0.50;0.40;;;10.10;99.90;;;;;;5057209;28;20204;-77
2021/09/20 02:06:40;;;;;;;0.50;0.40;;;10.20;99.90;;;;;;5040072;28;20549;-80
2021/09/20 02:09:10;;;;;;;0.50;0.40;;;10.30;99.90;;;;;;5048509;28;20255;-79
2021/09/20 02:11:37;;;;;;;0.50;0.40;;;10.30;99.90;;;;;;5055442;28;20192;-80
2021/09/20 02:14:04;;;;;;;0.50;0.40;;;10.40;99.90;;;;;;5061502;28;20203;-80
2021/09/20 02:16:32;;;;;;;0.50;0.40;;;10.50;99.90;;;;;;5061050;28;20719;-80
2021/09/20 02:18:59;;;;;;;0.50;0.40;;;10.60;99.90;;;;;;5060404;28;20203;-80
2021/09/20 02:21:26;;;;;;;0.50;0.40;;;10.60;99.90;;;;;;5059572;28;20212;-80
2021/09/20 02:23:52;;;;;;;0.50;0.40;;;10.70;99.90;;;;;;5060344;28;20199;-80
2021/09/20 02:26:19;;;;;;;0.50;0.40;;;10.70;99.90;;;;;;5059722;28;20201;-80
2021/09/20 02:28:46;;;;;;;0.50;0.40;;;10.80;99.90;;;;;;5059710;28;20203;-81
2021/09/20 02:31:13;;;;;;;0.50;0.40;;;10.80;99.90;;;;;;5059631;28;20216;-80
2021/09/20 02:33:42;;;;;;;0.50;0.40;;;10.90;99.90;;;;;;5058450;28;20255;-81
2021/09/20 02:36:10;;;;;;;0.50;0.40;;;10.90;99.90;;;;;;5063023;28;20221;-79
2021/09/20 02:38:37;;;;;;;0.50;0.40;;;10.90;99.90;;;;;;5064620;28;20195;-81
2021/09/20 02:41:04;;;;;;;0.70;0.70;;;10.90;99.90;;;;;;5064792;28;20237;-80
2021/09/20 02:43:31;;;;;;;0.50;0.40;;;11.00;99.90;;;;;;5064994;28;20197;-81
2021/09/20 02:45:58;;;;;;;0.50;0.40;;;11.10;99.90;;;;;;5064829;28;20193;-80
2021/09/20 02:48:25;;;;;;;0.50;0.40;;;11.10;99.90;;;;;;5065301;28;20194;-81
2021/09/20 02:50:53;;;;;;;0.50;0.40;;;11.10;99.90;;;;;;5064758;28;20231;-81
2021/09/20 02:53:20;;;;;;;0.50;0.40;;;11.20;99.90;;;;;;5065850;28;20657;-81
2021/09/20 02:55:47;;;;;;;0.50;0.40;;;11.20;99.90;;;;;;5065306;28;20224;-81
2021/09/20 02:58:14;;;;;;;0.50;0.40;;;11.20;99.90;;;;;;5065635;28;20192;-81
2021/09/20 03:00:41;;;;;;;0.50;0.40;;;11.20;99.90;;;;;;5063581;28;20220;-81
2021/09/20 03:03:07;;;;;;;0.50;0.40;;;11.20;99.90;;;;;;5065718;28;20198;-81
2021/09/20 03:05:35;;;;;;;0.50;0.40;;;11.20;99.90;;;;;;5064795;28;20198;-81
2021/09/20 03:08:05;;;;;;;0.50;0.40;;;11.30;99.90;;;;;;5054077;28;20197;-81
2021/09/20 03:10:32;;;;;;;0.50;0.40;;;11.30;99.90;;;;;;5044828;28;20229;-80
2021/09/20 03:12:59;;;;;;;0.50;0.40;;;11.30;99.90;;;;;;5044772;28;20209;-80
2021/09/20 03:15:26;;;;;;;0.50;0.40;;;11.30;99.90;;;;;;5040859;28;20214;-79
2021/09/20 03:17:53;;;;;;;1.17;0.98;;;11.30;99.90;;;;;;5038411;28;20202;-79
2021/09/20 03:20:19;;;;;;;0.50;0.40;;;11.40;99.90;;;;;;5037291;28;20228;-79
2021/09/20 03:22:46;;;;;;;0.82;0.82;;;11.30;99.90;;;;;;5037647;28;20196;-78
2021/09/20 03:25:16;;;;;;;0.50;0.40;;;11.30;99.90;;;;;;5038001;28;20196;-79
2021/09/20 03:27:43;;;;;;;1.60;0.77;;;11.30;99.90;;;;;;5037371;28;20197;-79
2021/09/20 03:30:12;;;;;;;0.50;0.40;;;11.30;99.90;;;;;;5038971;28;20629;-77
2021/09/20 03:32:39;;;;;;;0.50;0.40;;;11.30;99.90;;;;;;5038602;28;20198;-79
2021/09/20 03:35:08;;;;;;;0.50;0.40;;;11.30;99.90;;;;;;5038253;28;20204;-78
2021/09/20 03:37:34;;;;;;;0.50;0.40;;;11.30;99.90;;;;;;5038074;28;20572;-79
2021/09/20 03:40:01;;;;;;;0.50;0.40;;;11.40;99.90;;;;;;5044517;28;20217;-78
2021/09/20 03:42:29;;;;;;;0.50;0.40;;;11.40;99.90;;;;;;5051782;28;20252;-79
2021/09/20 03:44:56;;;;;;;0.50;0.40;;;11.40;99.90;;;;;;5057880;28;20606;-79
2021/09/20 03:47:23;;;;;;;0.50;0.40;;;11.40;99.90;;;;;;5056671;28;20271;-80
2021/09/20 03:49:49;;;;;;;0.50;0.40;;;11.40;99.90;;;;;;5057305;28;20272;-79
2021/09/20 03:52:16;;;;;;;0.50;0.40;;;11.40;99.90;;;;;;5057075;28;20681;-78
2021/09/20 03:54:43;;;;;;;0.50;0.40;;;11.50;99.90;;;;;;5057487;28;20196;-78
2021/09/20 03:57:10;;;;;;;0.50;0.40;;;11.50;99.90;;;;;;5057717;28;20713;-79
2021/09/20 03:59:38;;;;;;;0.50;0.40;;;11.50;99.90;;;;;;5057570;28;20217;-79
2021/09/20 04:02:04;;;;;;;0.50;0.40;;;11.50;99.90;;;;;;5057147;28;20202;-80
2021/09/20 04:04:32;;;;;;;0.50;0.40;;;11.50;99.90;;;;;;5057156;28;20206;-79
2021/09/20 04:07:02;;;;;;;0.50;0.40;;;11.60;99.90;;;;;;5047144;28;20209;-80
2021/09/20 04:09:29;;;;;;;0.50;0.40;;;11.60;99.90;;;;;;5036973;28;20221;-79
2021/09/20 04:11:56;;;;;;;0.50;0.40;;;11.60;99.90;;;;;;5037329;28;20220;-78
2021/09/20 04:14:22;;;;;;;0.50;0.40;;;11.60;99.90;;;;;;5043166;28;20199;-78
2021/09/20 04:16:51;;;;;;;0.50;0.40;;;11.60;99.90;;;;;;5038683;28;20219;-79
2021/09/20 04:19:18;;;;;;;0.50;0.38;;;11.60;99.90;;;;;;5038258;28;20193;-79
2021/09/20 04:21:45;;;;;;;0.50;0.40;;;11.60;99.90;;;;;;5036815;28;20204;-78
2021/09/20 04:24:11;;;;;;;0.50;0.40;;;11.60;99.90;;;;;;5036352;28;20202;-79
2021/09/20 04:26:38;;;;;;;0.50;0.40;;;11.70;99.90;;;;;;5036193;28;20202;-79
2021/09/20 04:29:05;;;;;;;0.50;0.40;;;11.60;99.90;;;;;;5037551;28;20204;-79
2021/09/20 04:31:31;;;;;;;0.50;0.40;;;11.70;99.90;;;;;;5036523;28;20238;-79
2021/09/20 04:33:59;;;;;;;0.50;0.40;;;11.70;99.90;;;;;;5038177;28;20284;-79
2021/09/20 04:36:26;;;;;;;0.50;0.40;;;11.70;99.90;;;;;;5036942;28;20220;-78
2021/09/20 04:38:53;;;;;;;0.50;0.40;;;11.70;99.90;;;;;;5037698;28;20256;-80
2021/09/20 04:41:20;;;;;;;0.50;0.40;;;11.70;99.90;;;;;;5036645;28;20219;-79
2021/09/20 04:43:46;;;;;;;1.15;1.05;;;11.70;99.90;;;;;;5036549;28;20212;-79
2021/09/20 04:46:13;;;;;;;0.50;0.40;;;11.70;99.90;;;;;;5037191;28;20199;-80
2021/09/20 04:48:40;;;;;;;0.75;0.75;;;11.70;99.90;;;;;;5036813;28;20201;-79
2021/09/20 04:51:08;;;;;;;0.50;0.40;;;11.70;99.90;;;;;;5037059;28;20214;-79
2021/09/20 04:53:34;;;;;;;0.50;0.40;;;11.70;99.90;;;;;;5036646;28;20206;-80
2021/09/20 04:56:01;;;;;;;0.50;0.40;;;11.70;99.90;;;;;;5037010;28;20217;-79
2021/09/20 04:58:28;;;;;;;0.50;0.40;;;11.60;99.90;;;;;;5037128;28;20222;-80
2021/09/20 05:00:55;;;;;;;0.50;0.40;;;11.60;99.90;;;;;;5036688;28;20222;-79
2021/09/20 05:03:22;;;;;;;0.50;0.40;;;11.50;99.90;;;;;;5035669;28;20622;-80
2021/09/20 05:05:49;;;;;;;0.50;0.40;;;11.50;99.90;;;;;;5037711;28;20199;-78
2021/09/20 05:08:18;;;;;;;0.50;0.40;;;11.60;99.90;;;;;;5044634;28;20199;-79
2021/09/20 05:10:45;;;;;;;0.50;0.40;;;11.60;99.90;;;;;;5054596;28;20286;-80
2021/09/20 05:13:12;;;;;;;0.50;0.40;;;11.60;99.90;;;;;;5044642;28;20224;-80
2021/09/20 05:15:38;;;;;;;0.50;0.40;;;11.70;99.90;;;;;;5053741;28;20572;-80
2021/09/20 05:18:05;;;;;;;0.50;0.40;;;11.60;99.90;;;;;;5054585;28;20262;-78
2021/09/20 05:20:32;;;;;;;0.70;0.50;;;11.70;99.90;;;;;;5054550;28;20212;-78
2021/09/20 05:22:58;;;;;;;0.50;0.40;;;11.70;99.90;;;;;;5053887;28;20192;-78
2021/09/20 05:25:26;;;;;;;0.50;0.40;;;11.70;99.90;;;;;;5053197;28;20690;-77
2021/09/20 05:27:53;;;;;;;0.70;0.70;;;11.70;99.90;;;;;;5053497;28;20194;-78
2021/09/20 05:30:21;;;;;;;0.50;0.40;;;11.70;99.90;;;;;;5053467;28;20220;-78
2021/09/20 05:32:48;;;;;;;0.50;0.40;;;11.70;99.90;;;;;;5053868;28;20195;-78
2021/09/20 05:35:16;;;;;;;0.50;0.40;;;11.70;99.90;;;;;;5054292;28;20562;-78
2021/09/20 05:37:45;;;;;;;1.50;1.48;;;11.70;99.90;;;;;;5054276;28;20220;-79
2021/09/20 05:40:12;;;;;;;0.50;0.40;;;11.70;99.90;;;;;;5053051;28;20325;-78
2021/09/20 05:42:41;;;;;;;0.50;0.40;;;11.70;99.90;;;;;;5053636;28;20198;-79
2021/09/20 05:45:09;;;;;;;0.50;0.40;;;11.80;99.90;;;;;;5054485;28;20202;-78
2021/09/20 05:47:36;;;;;;;0.50;0.40;;;11.80;99.90;;;;;;5054044;28;20199;-78
2021/09/20 05:50:04;;;;;;;0.50;0.40;;;11.90;99.90;;;;;;5053827;28;20233;-78
2021/09/20 05:52:31;;;;;;;0.50;0.40;;;11.90;99.90;;;;;;5053803;28;20204;-79
2021/09/20 05:54:57;;;;;;;1.40;0.85;;;11.90;99.90;;;;;;5053222;28;20206;-78
2021/09/20 05:57:24;;;;;;;0.50;0.40;;;12.00;99.90;;;;;;5054019;28;20213;-78
2021/09/20 05:59:52;;;;;;;0.50;0.40;;;12.00;99.90;;;;;;5053850;28;20226;-77
2021/09/20 06:02:19;;;;;;;0.70;0.70;;;12.10;99.90;;;;;;5054476;28;20210;-78
2021/09/20 06:04:46;;;;;;;0.95;0.95;;;12.10;99.90;;;;;;5054279;28;20198;-79
2021/09/20 06:07:13;;;;;;;0.60;0.50;;;12.10;99.90;;;;;;5053721;28;20291;-80
2021/09/20 06:09:39;;;;;;;5.65;2.55;;;12.10;99.90;;;;;;5041389;28;20216;-78
2021/09/20 06:12:07;;;;;;;1.77;0.95;;;12.10;99.90;;;;;;5044760;28;20199;-78
2021/09/20 06:14:33;;;;;;;0.50;0.40;;;12.10;99.90;;;;;;5057042;28;20197;-78
2021/09/20 06:17:02;;;;;;;0.50;0.40;;;12.10;99.90;;;;;;5057468;28;20217;-78
2021/09/20 06:19:28;;;;;;;0.50;0.40;;;12.10;99.90;;;;;;5057332;28;20226;-78
2021/09/20 06:21:55;;;;;;;0.50;0.40;;;12.20;99.90;;;;;;5057579;28;20199;-79
2021/09/20 06:24:22;;;;;;;1.05;0.85;;;12.20;99.90;;;;;;5056903;28;20202;-78
2021/09/20 06:26:49;;;;;;;0.50;0.33;;;12.30;99.90;;;;;;5057010;28;20195;-78
2021/09/20 06:29:16;;;;;;;0.50;0.40;;;12.40;99.90;;;;;;5057975;28;20437;-78
2021/09/20 06:31:42;;;;;;;0.50;0.40;;;12.40;99.90;;;;;;5058701;28;20452;-78
2021/09/20 06:34:11;;;;;;;0.50;0.40;;;12.50;99.90;;;;;;5057163;28;20440;-79
2021/09/20 06:36:39;;;;;;;0.50;0.40;;;12.50;99.90;;;;;;5056976;28;20477;-78
2021/09/20 06:39:07;;;;;;;0.50;0.40;;;12.60;99.90;;;;;;5058918;28;20209;-78
2021/09/20 06:41:34;;;;;;;0.50;0.40;;;12.70;99.90;;;;;;5058765;28;20195;-79
2021/09/20 06:44:02;;;;;;;0.50;0.50;;;12.70;99.90;;;;;;5059895;28;20224;-80
2021/09/20 06:46:30;;;;;;;0.50;0.40;;;12.80;99.90;;;;;;5058693;28;20288;-78
2021/09/20 06:48:57;;;;;;;0.68;0.68;;;12.60;99.90;;;;;;5059699;28;20228;-79
2021/09/20 06:51:25;;;;;;;0.50;0.40;;;12.70;99.90;;;;;;5058543;28;20221;-78
2021/09/20 06:53:52;;;;;;;11.03;1.53;;;12.80;99.90;;;;;;5048900;28;20207;-77
2021/09/20 06:56:19;;;;;;;0.50;0.40;;;12.70;99.90;;;;;;5037272;28;20881;-76
2021/09/20 06:58:46;;;;;;;0.50;0.40;;;12.80;99.90;;;;;;5035091;28;20214;-76
2021/09/20 07:01:14;;;;;;;0.50;0.40;;;12.90;99.90;;;;;;5034598;28;20465;-76
2021/09/20 07:03:40;;;;;;;0.50;0.40;;;12.90;99.90;;;;;;5035041;28;20476;-77
2021/09/20 07:06:07;;;;;;;0.50;0.40;;;12.90;99.90;;;;;;5035084;28;20199;-77
2021/09/20 07:08:36;;;;;;;0.50;0.38;;;13.00;99.90;;;;;;5034138;28;20608;-78
2021/09/20 07:11:02;;;;;;;1.23;1.13;;;13.10;99.90;;;;;;5034996;28;20294;-77
2021/09/20 07:13:29;;;;;;;0.50;0.40;;;13.20;99.90;;;;;;5034885;28;20657;-80
2021/09/20 07:15:56;;;;;;;0.53;0.40;;;13.30;99.90;;;;;;5042812;28;20192;-79
2021/09/20 07:18:22;;;;;;;0.50;0.40;;;13.30;99.90;;;;;;5040790;28;20482;-79
2021/09/20 07:20:49;;;;;;;0.50;0.40;;;13.40;99.90;;;;;;5039902;28;20463;-80
2021/09/20 07:23:16;;;;;;;0.50;0.40;;;13.60;99.90;;;;;;5037562;28;20888;-77
2021/09/20 07:25:44;;;;;;;0.50;0.50;;;13.60;99.90;;;;;;5041067;28;20202;-80
2021/09/20 07:28:11;;;;;;;0.50;0.40;;;13.60;99.90;;;;;;5040593;28;20438;-80
2021/09/20 07:30:39;;;;;;;0.70;0.70;;;13.50;99.90;;;;;;5040150;28;20466;-80
2021/09/20 07:33:06;;;;;;;0.50;0.40;;;13.50;99.90;;;;;;5040119;28;20259;-77
2021/09/20 07:35:32;;;;;;;0.50;0.40;;;13.60;99.90;;;;;;5034422;28;20854;-78
2021/09/20 07:37:59;;;;;;;0.50;0.40;;;13.60;99.90;;;;;;5034590;28;20473;-78
2021/09/20 07:40:28;;;;;;;0.50;0.40;;;13.70;99.90;;;;;;5040090;28;20461;-80
2021/09/20 07:42:58;;;;;;;0.50;0.40;;;13.70;99.90;;;;;;5041081;28;20438;-80
2021/09/20 07:45:25;;;;;;;0.50;0.40;;;13.80;99.90;;;;;;5036491;28;20533;-77
2021/09/20 07:47:52;;;;;;;0.50;0.40;;;14.00;99.90;;;;;;5034692;28;20484;-78
2021/09/20 07:50:19;;;;;;;1.20;1.10;;;14.00;99.90;;;;;;5038739;28;20991;-80
2021/09/20 07:52:47;;;;;;;0.90;0.73;;;14.00;99.90;;;;;;5040418;28;20438;-80
2021/09/20 07:55:14;;;;;;;0.50;0.40;;;14.00;99.90;;;;;;5037642;28;20449;-77
2021/09/20 07:57:43;;;;;;;0.50;0.40;;;14.10;99.90;;;;;;5036038;28;20548;-79
2021/09/20 08:00:12;;;;;;;0.97;0.97;;;14.10;99.90;;;;;;5040003;28;20864;-80
2021/09/20 08:02:39;;;;;;;0.50;0.43;;;14.20;99.90;;;;;;5040734;28;20465;-80
2021/09/20 08:05:07;;;;;;;0.50;0.40;;;14.20;99.90;;;;;;5040088;28;20454;-79
2021/09/20 08:07:33;;;;;;;0.50;0.40;;;14.20;99.90;;;;;;5039689;28;20430;-79
2021/09/20 08:10:00;;;;;;;0.50;0.40;;;14.30;99.90;;;;;;5039706;28;20983;-79
2021/09/20 08:12:27;;;;;;;0.50;0.40;;;14.40;99.90;;;;;;5039850;28;20442;-80
2021/09/20 08:14:53;;;;;;;0.50;0.40;;;14.50;99.90;;;;;;5039583;28;20823;-80
2021/09/20 08:17:21;;;;;;;0.50;0.30;;;14.70;99.90;;;;;;5037811;28;20478;-78
2021/09/20 08:19:48;;;;;;;1.37;1.27;;;14.80;99.90;;;;;;5033905;28;20761;-79
2021/09/20 08:22:15;;;;;;;0.50;0.40;;;15.00;99.90;;;;;;5033357;28;20450;-75
2021/09/20 08:24:41;;;;;;;0.50;0.40;;;15.10;99.90;;;;;;5036033;28;20539;-78
2021/09/20 08:27:08;;;;;;;0.50;0.40;;;15.30;99.90;;;;;;5034586;28;20445;-78
2021/09/20 08:29:35;;;;;;;0.50;0.30;;;15.40;99.90;;;;;;5033221;28;20458;-78
2021/09/20 08:32:02;;;;;;;0.50;0.30;;;15.60;99.90;;;;;;5032634;28;20438;-78
2021/09/20 08:34:30;;;;;;;0.50;0.40;;;15.80;99.90;;;;;;5032794;28;20501;-78
2021/09/20 08:36:56;;;;;;;0.50;0.40;;;16.10;99.90;;;;;;5032509;28;20475;-78
2021/09/20 08:39:23;;;;;;;0.50;0.40;;;16.50;99.90;;;;;;5032574;28;20438;-78
2021/09/20 08:41:50;;;;;;;0.50;0.33;;;16.70;99.90;;;;;;5038220;28;20442;-79
2021/09/20 08:44:18;;;;;;;0.60;0.50;;;16.80;99.90;;;;;;5033347;28;20958;-74
2021/09/20 08:46:47;;;;;;;0.50;0.40;;;17.40;99.90;;;;;;5032894;28;20469;-78
2021/09/20 08:49:14;;;;;;;0.50;0.40;;;18.60;99.90;;;;;;5032549;28;20538;-78
2021/09/20 08:51:42;;;;;;;0.50;0.37;;;20.60;99.90;;;;;;5032783;28;20449;-79
2021/09/20 08:54:09;;;;;;;0.50;0.30;;;22.10;83.20;;;;;;5033110;28;20454;-78
2021/09/20 08:56:36;;;;;;;3.50;3.20;;;23.20;76.70;;;;;;5032348;28;20442;-78
2021/09/20 08:59:03;;;;;;;0.60;0.60;;;24.40;72.50;;;;;;5033313;28;20442;-78
2021/09/20 09:01:30;;;;;;;0.50;0.30;;;25.20;64.00;;;;;;5032729;28;20465;-79
2021/09/20 09:04:24;;;;;;;0.60;0.40;;;25.20;61.40;;;;;;5032272;28;20439;-78
2021/09/20 09:06:58;;;;;;;0.50;0.33;;;24.80;60.90;;;;;;5032231;28;20880;-78
2021/09/20 09:09:29;;;;;;;0.50;0.30;;;25.10;61.40;;;;;;5032331;28;20434;-79
2021/09/20 09:12:09;;;;;;;0.50;0.30;;;25.60;59.10;;;;;;5032313;28;20836;-79
2021/09/20 09:14:40;;;;;;;0.50;0.30;;;26.70;58.30;;;;;;5032844;28;20428;-78
2021/09/20 09:17:13;;;;;;;0.50;0.30;;;27.20;56.60;;;;;;5032110;28;20856;-78
2021/09/20 09:19:49;;;;;;;0.50;0.30;;;28.10;56.30;;;;;;5032729;28;20463;-79
2021/09/20 09:22:17;;;;;;;0.50;0.30;;;28.50;54.30;;;;;;5032357;28;20437;-75
2021/09/20 09:24:58;;;;;;;0.50;0.50;;;29.10;53.20;;;;;;5033357;28;20456;-78
2021/09/20 09:27:26;;;;;;;1.10;0.50;;;30.00;50.60;;;;;;5033214;28;20450;-78
2021/09/20 09:30:01;;;;;;;0.50;0.40;;;29.30;49.90;;;;;;5032614;28;20957;-78
2021/09/20 09:32:28;;;;;;;0.50;0.30;;;28.70;50.40;;;;;;5031493;28;20447;-78
2021/09/20 09:34:57;;;;;;;0.50;0.30;;;29.10;51.70;;;;;;5032197;28;20476;-79
2021/09/20 09:37:25;;;;;;;0.60;0.53;;;28.80;50.20;;;;;;5032348;28;20477;-77
2021/09/20 09:40:06;;;;;;;0.50;0.30;;;28.50;50.60;;;;;;5031961;28;20480;-79
2021/09/20 09:42:33;;;;;;;0.63;0.40;;;28.20;50.90;;;;;;5032295;28;20954;-78
2021/09/20 09:45:25;;;;;;;0.50;0.30;;;28.60;51.80;;;;;;5032019;28;20939;-79
2021/09/20 09:48:07;;;;;;;1.40;1.30;;;28.70;50.90;;;;;;5031880;28;20437;-79
2021/09/20 09:50:34;;;;;;;0.50;0.30;;;28.40;49.10;;;;;;5032058;28;20478;-76
2021/09/20 09:53:02;;;;;;;1.73;0.97;;;27.90;50.40;;;;;;5032248;28;20445;-77
2021/09/20 09:55:32;;;;;;;0.60;0.60;;;28.00;50.60;;;;;;5031961;28;20445;-78
2021/09/20 09:58:12;;;;;;;0.50;0.40;;;28.50;50.60;;;;;;5032122;28;20501;-78
2021/09/20 10:00:39;;;;;;;0.50;0.30;;;28.60;49.70;;;;;;5032303;28;20518;-78
2021/09/20 10:03:06;;;;;;;0.50;0.50;;;28.00;49.90;;;;;;5031201;28;20438;-79
2021/09/20 10:05:33;;;;;;;0.50;0.30;;;28.40;49.80;;;;;;5031878;28;20498;-78
2021/09/20 10:08:09;;;;;;;0.50;0.30;;;28.50;50.80;;;;;;5031616;28;20464;-78
2021/09/20 10:10:36;;;;;;;0.50;0.30;;;28.60;49.80;;;;;;5031062;28;20948;-78
2021/09/20 10:13:04;;;;;;;0.50;0.30;;;28.30;49.10;;;;;;5031852;28;20441;-76
2021/09/20 10:15:32;;;;;;;0.50;0.30;;;28.30;50.00;;;;;;5031216;28;20454;-78
2021/09/20 10:18:00;;;;;;;0.50;0.30;;;28.50;49.60;;;;;;5031741;28;20543;-78
2021/09/20 10:20:28;;;;;;;1.97;1.87;;;28.20;50.60;;;;;;5031342;28;20469;-78
2021/09/20 10:22:56;;;;;;;1.43;0.70;;;28.70;51.20;;;;;;5032170;28;20456;-79
2021/09/20 10:25:25;;;;;;;0.50;0.40;;;28.40;49.20;;;;;;5031374;28;20472;-78
2021/09/20 10:27:53;;;;;;;0.50;0.30;;;28.40;50.00;;;;;;5031804;28;20445;-78
2021/09/20 10:30:24;;;;;;;0.60;0.43;;;28.20;49.70;;;;;;5031427;28;20462;-78
2021/09/20 10:32:55;;;;;;;0.50;0.30;;;28.00;50.20;;;;;;5031813;28;20898;-78
2021/09/20 10:35:26;;;;;;;0.50;0.30;;;28.30;50.80;;;;;;5030914;28;20933;-78
2021/09/20 10:37:54;;;;;;;1.33;0.87;;;28.20;50.50;;;;;;5032701;28;20476;-78
2021/09/20 10:40:22;;;;;;;0.50;0.30;;;28.90;50.80;;;;;;5031550;28;20457;-78
2021/09/20 10:43:04;;;;;;;0.50;0.30;;;29.60;50.70;;;;;;5031648;28;20450;-78
2021/09/20 10:45:55;;;;;;;0.50;0.30;;;30.10;49.20;;;;;;5031879;28;20883;-78
2021/09/20 10:48:47;;;;;;;0.70;0.70;;;30.20;47.80;;;;;;5032217;28;20500;-79
2021/09/20 10:51:19;;;;;;;0.50;0.30;;;29.10;47.60;;;;;;5031362;28;20469;-75
2021/09/20 10:53:47;;;;;;;0.50;0.30;;;28.60;49.00;;;;;;5032325;28;20819;-79
2021/09/20 10:56:24;;;;;;;0.63;0.57;;;28.60;49.30;;;;;;5033019;28;20448;-78
2021/09/20 10:59:15;;;;;;;0.50;0.40;;;28.70;48.80;;;;;;5036178;28;20565;-79
2021/09/20 11:01:43;;;;;;;0.50;0.30;;;28.00;49.30;;;;;;5035968;28;20448;-78
2021/09/20 11:04:15;;;;;;;2.00;0.80;;;28.10;49.10;;;;;;5035274;28;20498;-79
2021/09/20 11:06:43;;;;;;;0.50;0.30;;;27.80;49.00;;;;;;5035410;28;20799;-78
2021/09/20 11:09:30;;;;;;;0.50;0.30;;;27.20;49.70;;;;;;5035187;28;20499;-78
2021/09/20 11:12:12;;;;;;;0.50;0.30;;;27.40;51.20;;;;;;5034783;28;20427;-78
2021/09/20 11:15:00;;;;;;;0.97;0.97;;;27.20;51.60;;;;;;5035210;28;20440;-79
2021/09/20 11:17:30;;;;;;;0.50;0.30;;;27.30;51.30;;;;;;5032212;28;20980;-78
2021/09/20 11:19:59;;;;;;;0.50;0.40;;;26.20;52.50;;;;;;5034863;28;20472;-79
2021/09/20 11:22:32;;;;;;;0.50;0.30;;;26.00;55.70;;;;;;5034216;28;20441;-79
2021/09/20 11:25:03;;;;;;;0.50;0.30;;;26.80;54.30;;;;;;5034358;28;20909;-79
2021/09/20 11:27:33;;;;;;;0.50;0.40;;;27.60;54.50;;;;;;5035227;28;20568;-79
2021/09/20 11:30:05;;;;;;;0.50;0.30;;;28.70;53.60;;;;;;5037000;28;20773;-78
2021/09/20 11:32:32;;;;;;;0.60;0.50;;;29.30;50.70;;;;;;5036323;28;20427;-79
2021/09/20 11:35:01;;;;;;;0.50;0.40;;;29.70;50.40;;;;;;5034842;28;20452;-78
2021/09/20 11:37:30;;;;;;;0.50;0.40;;;29.10;49.40;;;;;;5033933;28;20449;-79
2021/09/20 11:39:59;;;;;;;0.93;0.93;;;28.50;50.10;;;;;;5034371;28;20466;-79
2021/09/20 11:42:40;;;;;;;0.50;0.30;;;27.70;50.10;;;;;;5034298;28;20441;-80
2021/09/20 11:45:12;;;;;;;0.50;0.40;;;27.20;51.70;;;;;;5034931;28;20458;-78
2021/09/20 11:47:41;;;;;;;0.50;0.30;;;26.00;51.90;;;;;;5034172;28;20439;-79
2021/09/20 11:50:12;;;;;;;0.60;0.40;;;24.80;53.80;;;;;;5033727;28;20471;-78
2021/09/20 11:52:41;;;;;;;0.50;0.30;;;24.20;56.10;;;;;;5033962;28;20438;-79
2021/09/20 11:55:13;;;;;;;0.50;0.30;;;24.60;56.60;;;;;;5033902;28;20439;-78
2021/09/20 11:57:41;;;;;;;0.50;0.40;;;25.60;57.60;;;;;;5034678;28;20435;-78
2021/09/20 12:00:12;;;;;;;0.60;0.50;;;27.10;56.80;;;;;;5034483;28;20541;-79
2021/09/20 12:02:42;;;;;;;4.23;0.77;;;28.10;55.60;;;;;;5035068;28;20445;-79
2021/09/20 12:05:11;;;;;;;0.50;0.50;;;28.70;51.60;;;;;;5033897;28;20426;-78
2021/09/20 12:07:45;;;;;;;0.87;0.77;;;27.80;50.90;;;;;;5033602;28;20448;-78
2021/09/20 12:10:13;;;;;;;0.50;0.30;;;27.70;52.10;;;;;;5032908;28;20557;-79
2021/09/20 12:12:40;;;;;;;1.23;1.13;;;27.20;52.40;;;;;;5033502;28;20448;-79
2021/09/20 12:15:14;;;;;;;0.50;0.30;;;26.80;52.50;;;;;;5033320;28;20444;-79
2021/09/20 12:17:52;;;;;;;0.50;0.30;;;26.80;53.80;;;;;;5033361;28;20445;-79
2021/09/20 12:20:23;;;;;;;0.50;0.30;;;27.10;53.60;;;;;;5033170;28;20538;-79
2021/09/20 12:22:52;;;;;;;1.83;1.73;;;26.50;54.40;;;;;;5033186;28;20821;-79
2021/09/20 12:25:32;;;;;;;0.60;0.60;;;25.80;55.30;;;;;;5032980;28;20451;-78
2021/09/20 12:28:00;;;;;;;0.50;0.30;;;25.90;57.00;;;;;;5034032;28;20430;-79
2021/09/20 12:30:30;;;;;;;0.50;0.30;;;27.10;56.50;;;;;;5033086;28;20469;-79
2021/09/20 12:33:09;;;;;;;0.50;0.40;;;27.80;54.40;;;;;;5033509;28;20448;-79
2021/09/20 12:35:37;;;;;;;0.50;0.40;;;27.00;52.60;;;;;;5033056;28;20450;-78
2021/09/20 12:38:20;;;;;;;0.50;0.30;;;25.60;54.60;;;;;;5044134;28;20440;-79
2021/09/20 12:40:47;;;;;;;0.57;0.50;;;25.80;54.90;;;;;;5032359;28;20452;-79
2021/09/20 12:43:21;;;;;;;0.50;0.30;;;26.10;54.00;;;;;;5032319;28;20440;-79
2021/09/20 12:45:49;;;;;;;0.70;0.60;;;26.30;54.40;;;;;;5033341;28;20419;-79
2021/09/20 12:48:16;;;;;;;0.50;0.30;;;26.30;55.30;;;;;;5033151;28;20437;-80
2021/09/20 12:50:45;;;;;;;0.70;0.50;;;26.40;56.50;;;;;;5032878;28;20883;-79
2021/09/20 12:53:13;;;;;;;0.50;0.40;;;26.20;55.10;;;;;;5032710;28;20453;-78
2021/09/20 12:55:41;;;;;;;2.13;1.00;;;26.40;55.60;;;;;;5032919;28;20514;-79